sensor_id;sensor_type;location;lat;lon;timestamp;temperature;humidity
23311;DHT22;11828;51.508;18.118;2022-09-29T00:00:14;24.00;35.00
23311;DHT22;11828;51.508;18.118;2022-09-29T00:03:00;24.10;35.10
23311;DHT22;11828;51.508;18.118;2022-09-29T00:05:26;24.10;34.80
23311;DHT22;11828;51.508;18.118;2022-09-29T00:07:53;24.20;34.90
23311;DHT22;11828;51.508;18.118;2022-09-29T00:10:19;24.10;34.90
23311;DHT22;11828;51.508;18.118;2022-09-29T00:12:45;24.10;34.90
23311;DHT22;11828;51.508;18.118;2022-09-29T00:15:12;24.00;35.00
23311;DHT22;11828;51.508;18.118;2022-09-29T00:17:38;24.00;35.00
23311;DHT22;11828;51.508;18.118;2022-09-29T00:20:05;24.00;35.00
23311;DHT22;11828;51.508;18.118;2022-09-29T00:22:31;24.10;35.00
23311;DHT22;11828;51.508;18.118;2022-09-29T00:24:57;24.20;34.90
23311;DHT22;11828;51.508;18.118;2022-09-29T00:27:23;24.30;34.60
23311;DHT22;11828;51.508;18.118;2022-09-29T00:29:49;24.40;34.60
23311;DHT22;11828;51.508;18.118;2022-09-29T00:32:15;24.30;34.50
23311;DHT22;11828;51.508;18.118;2022-09-29T00:34:41;24.30;34.50
23311;DHT22;11828;51.508;18.118;2022-09-29T00:37:07;24.30;34.40
23311;DHT22;11828;51.508;18.118;2022-09-29T00:39:33;24.20;34.60
23311;DHT22;11828;51.508;18.118;2022-09-29T00:41:59;24.20;34.60
23311;DHT22;11828;51.508;18.118;2022-09-29T00:44:51;24.10;34.60
23311;DHT22;11828;51.508;18.118;2022-09-29T00:47:25;24.10;34.80
23311;DHT22;11828;51.508;18.118;2022-09-29T00:49:57;24.00;34.70
23311;DHT22;11828;51.508;18.118;2022-09-29T00:57:38;23.80;35.00
23311;DHT22;11828;51.508;18.118;2022-09-29T01:00:10;23.80;35.10
23311;DHT22;11828;51.508;18.118;2022-09-29T01:02:42;23.80;35.10
23311;DHT22;11828;51.508;18.118;2022-09-29T01:05:18;23.80;35.10
23311;DHT22;11828;51.508;18.118;2022-09-29T01:07:47;23.90;35.10
23311;DHT22;11828;51.508;18.118;2022-09-29T01:10:15;23.80;35.10
23311;DHT22;11828;51.508;18.118;2022-09-29T01:12:44;23.90;35.20
23311;DHT22;11828;51.508;18.118;2022-09-29T01:15:13;23.90;35.20
23311;DHT22;11828;51.508;18.118;2022-09-29T01:17:41;23.90;35.20
23311;DHT22;11828;51.508;18.118;2022-09-29T01:20:17;23.90;35.20
23311;DHT22;11828;51.508;18.118;2022-09-29T01:23:19;23.90;35.20
23311;DHT22;11828;51.508;18.118;2022-09-29T01:28:53;23.90;35.20
23311;DHT22;11828;51.508;18.118;2022-09-29T01:31:47;23.70;35.20
23311;DHT22;11828;51.508;18.118;2022-09-29T01:40:25;23.60;35.20
23311;DHT22;11828;51.508;18.118;2022-09-29T01:43:07;23.60;35.30
23311;DHT22;11828;51.508;18.118;2022-09-29T01:45:43;23.40;35.50
23311;DHT22;11828;51.508;18.118;2022-09-29T01:48:26;23.30;35.60
23311;DHT22;11828;51.508;18.118;2022-09-29T01:50:57;23.40;35.60
23311;DHT22;11828;51.508;18.118;2022-09-29T01:53:41;23.30;35.40
23311;DHT22;11828;51.508;18.118;2022-09-29T01:56:19;23.30;35.50
23311;DHT22;11828;51.508;18.118;2022-09-29T01:58:52;24.00;35.80
23311;DHT22;11828;51.508;18.118;2022-09-29T02:01:24;23.40;35.30
23311;DHT22;11828;51.508;18.118;2022-09-29T02:04:30;23.50;35.20
23311;DHT22;11828;51.508;18.118;2022-09-29T02:06:56;23.40;35.20
23311;DHT22;11828;51.508;18.118;2022-09-29T02:09:34;23.20;35.10
23311;DHT22;11828;51.508;18.118;2022-09-29T02:12:04;23.10;35.20
23311;DHT22;11828;51.508;18.118;2022-09-29T02:14:42;23.00;35.40
23311;DHT22;11828;51.508;18.118;2022-09-29T02:17:20;22.90;35.40
23311;DHT22;11828;51.508;18.118;2022-09-29T02:19:50;23.00;35.40
23311;DHT22;11828;51.508;18.118;2022-09-29T02:22:17;23.10;35.10
23311;DHT22;11828;51.508;18.118;2022-09-29T02:24:43;23.10;34.90
23311;DHT22;11828;51.508;18.118;2022-09-29T02:27:10;23.10;34.80
23311;DHT22;11828;51.508;18.118;2022-09-29T02:29:36;23.10;34.80
23311;DHT22;11828;51.508;18.118;2022-09-29T02:32:04;23.00;34.80
23311;DHT22;11828;51.508;18.118;2022-09-29T02:34:38;23.00;34.90
23311;DHT22;11828;51.508;18.118;2022-09-29T02:37:38;23.00;34.80
23311;DHT22;11828;51.508;18.118;2022-09-29T02:46:41;22.90;34.80
23311;DHT22;11828;51.508;18.118;2022-09-29T02:55:42;22.60;35.30
23311;DHT22;11828;51.508;18.118;2022-09-29T03:00:44;22.70;35.10
23311;DHT22;11828;51.508;18.118;2022-09-29T03:03:10;22.60;35.20
23311;DHT22;11828;51.508;18.118;2022-09-29T03:05:36;22.50;35.40
23311;DHT22;11828;51.508;18.118;2022-09-29T03:08:02;22.30;35.70
23311;DHT22;11828;51.508;18.118;2022-09-29T03:10:28;22.20;35.90
23311;DHT22;11828;51.508;18.118;2022-09-29T03:12:55;22.10;36.10
23311;DHT22;11828;51.508;18.118;2022-09-29T03:15:21;22.00;36.20
23311;DHT22;11828;51.508;18.118;2022-09-29T03:17:47;22.00;36.30
23311;DHT22;11828;51.508;18.118;2022-09-29T03:20:14;22.10;36.10
23311;DHT22;11828;51.508;18.118;2022-09-29T03:22:40;22.20;35.80
23311;DHT22;11828;51.508;18.118;2022-09-29T03:25:07;22.20;35.80
23311;DHT22;11828;51.508;18.118;2022-09-29T03:27:33;22.20;35.70
23311;DHT22;11828;51.508;18.118;2022-09-29T03:30:01;22.30;35.50
23311;DHT22;11828;51.508;18.118;2022-09-29T03:32:28;22.30;35.40
23311;DHT22;11828;51.508;18.118;2022-09-29T03:34:55;22.30;35.60
23311;DHT22;11828;51.508;18.118;2022-09-29T03:37:20;22.20;35.70
23311;DHT22;11828;51.508;18.118;2022-09-29T03:39:46;22.20;35.70
23311;DHT22;11828;51.508;18.118;2022-09-29T03:42:13;22.20;35.50
23311;DHT22;11828;51.508;18.118;2022-09-29T03:44:39;22.10;35.50
23311;DHT22;11828;51.508;18.118;2022-09-29T03:47:05;22.10;35.40
23311;DHT22;11828;51.508;18.118;2022-09-29T03:49:31;22.10;35.70
23311;DHT22;11828;51.508;18.118;2022-09-29T03:51:57;22.10;35.60
23311;DHT22;11828;51.508;18.118;2022-09-29T03:54:23;21.90;35.80
23311;DHT22;11828;51.508;18.118;2022-09-29T03:56:51;21.90;35.90
23311;DHT22;11828;51.508;18.118;2022-09-29T03:59:17;21.90;36.10
23311;DHT22;11828;51.508;18.118;2022-09-29T04:01:42;21.90;36.10
23311;DHT22;11828;51.508;18.118;2022-09-29T04:04:09;21.90;36.10
23311;DHT22;11828;51.508;18.118;2022-09-29T04:06:35;21.80;36.10
23311;DHT22;11828;51.508;18.118;2022-09-29T04:09:02;21.80;36.20
23311;DHT22;11828;51.508;18.118;2022-09-29T04:11:28;21.80;36.30
23311;DHT22;11828;51.508;18.118;2022-09-29T04:13:54;21.90;36.30
23311;DHT22;11828;51.508;18.118;2022-09-29T04:16:20;21.90;36.10
23311;DHT22;11828;51.508;18.118;2022-09-29T04:18:46;22.10;36.10
23311;DHT22;11828;51.508;18.118;2022-09-29T04:21:12;22.10;35.80
23311;DHT22;11828;51.508;18.118;2022-09-29T04:23:38;22.20;35.60
23311;DHT22;11828;51.508;18.118;2022-09-29T04:26:04;22.30;35.60
23311;DHT22;11828;51.508;18.118;2022-09-29T04:28:31;22.30;35.60
23311;DHT22;11828;51.508;18.118;2022-09-29T04:30:59;22.40;35.40
23311;DHT22;11828;51.508;18.118;2022-09-29T04:33:25;22.40;35.30
23311;DHT22;11828;51.508;18.118;2022-09-29T04:35:51;22.40;35.10
23311;DHT22;11828;51.508;18.118;2022-09-29T04:38:17;22.50;35.00
23311;DHT22;11828;51.508;18.118;2022-09-29T04:40:43;22.50;34.80
23311;DHT22;11828;51.508;18.118;2022-09-29T04:43:09;22.40;34.80
23311;DHT22;11828;51.508;18.118;2022-09-29T04:45:35;22.40;34.90
23311;DHT22;11828;51.508;18.118;2022-09-29T04:48:01;22.30;35.00
23311;DHT22;11828;51.508;18.118;2022-09-29T04:50:29;22.20;35.00
23311;DHT22;11828;51.508;18.118;2022-09-29T04:52:55;22.20;35.20
23311;DHT22;11828;51.508;18.118;2022-09-29T04:55:21;22.20;35.20
23311;DHT22;11828;51.508;18.118;2022-09-29T04:57:47;22.20;35.20
23311;DHT22;11828;51.508;18.118;2022-09-29T05:00:14;22.20;35.20
23311;DHT22;11828;51.508;18.118;2022-09-29T05:02:41;22.20;35.20
23311;DHT22;11828;51.508;18.118;2022-09-29T05:05:08;22.20;35.20
23311;DHT22;11828;51.508;18.118;2022-09-29T05:07:36;22.20;35.20
23311;DHT22;11828;51.508;18.118;2022-09-29T05:10:03;22.20;35.20
23311;DHT22;11828;51.508;18.118;2022-09-29T05:12:30;22.20;35.40
23311;DHT22;11828;51.508;18.118;2022-09-29T05:14:56;22.10;35.30
23311;DHT22;11828;51.508;18.118;2022-09-29T05:17:23;22.20;35.40
23311;DHT22;11828;51.508;18.118;2022-09-29T05:19:49;22.20;35.40
23311;DHT22;11828;51.508;18.118;2022-09-29T05:22:15;22.20;35.40
23311;DHT22;11828;51.508;18.118;2022-09-29T05:24:41;22.10;35.40
23311;DHT22;11828;51.508;18.118;2022-09-29T05:27:07;22.20;35.30
23311;DHT22;11828;51.508;18.118;2022-09-29T05:29:33;22.40;35.00
23311;DHT22;11828;51.508;18.118;2022-09-29T05:31:59;22.40;34.90
23311;DHT22;11828;51.508;18.118;2022-09-29T05:34:25;22.40;34.90
23311;DHT22;11828;51.508;18.118;2022-09-29T05:36:51;22.40;34.90
23311;DHT22;11828;51.508;18.118;2022-09-29T05:39:17;22.40;34.90
23311;DHT22;11828;51.508;18.118;2022-09-29T05:41:45;22.40;35.00
23311;DHT22;11828;51.508;18.118;2022-09-29T05:44:12;22.50;34.90
23311;DHT22;11828;51.508;18.118;2022-09-29T05:46:39;22.60;34.80
23311;DHT22;11828;51.508;18.118;2022-09-29T05:49:05;22.70;34.70
23311;DHT22;11828;51.508;18.118;2022-09-29T05:51:31;22.80;34.50
23311;DHT22;11828;51.508;18.118;2022-09-29T05:53:57;22.90;34.50
23311;DHT22;11828;51.508;18.118;2022-09-29T05:56:25;23.00;34.30
23311;DHT22;11828;51.508;18.118;2022-09-29T05:58:52;23.10;34.30
23311;DHT22;11828;51.508;18.118;2022-09-29T06:01:24;23.20;34.10
23311;DHT22;11828;51.508;18.118;2022-09-29T06:03:54;23.30;33.90
23311;DHT22;11828;51.508;18.118;2022-09-29T06:06:24;23.20;34.00
23311;DHT22;11828;51.508;18.118;2022-09-29T06:08:52;23.20;34.80
23311;DHT22;11828;51.508;18.118;2022-09-29T06:11:23;23.20;34.00
23311;DHT22;11828;51.508;18.118;2022-09-29T06:13:53;23.10;34.20
23311;DHT22;11828;51.508;18.118;2022-09-29T06:16:23;23.10;34.30
23311;DHT22;11828;51.508;18.118;2022-09-29T06:18:50;23.10;34.30
23311;DHT22;11828;51.508;18.118;2022-09-29T06:21:25;23.30;34.20
23311;DHT22;11828;51.508;18.118;2022-09-29T06:23:55;23.40;34.20
23311;DHT22;11828;51.508;18.118;2022-09-29T06:26:23;23.60;34.20
23311;DHT22;11828;51.508;18.118;2022-09-29T06:28:50;23.80;34.20
23311;DHT22;11828;51.508;18.118;2022-09-29T06:31:23;23.80;34.30
23311;DHT22;11828;51.508;18.118;2022-09-29T06:33:51;24.10;34.30
23311;DHT22;11828;51.508;18.118;2022-09-29T06:36:49;24.60;34.10
23311;DHT22;11828;51.508;18.118;2022-09-29T06:39:35;24.90;32.90
23311;DHT22;11828;51.508;18.118;2022-09-29T06:42:01;24.90;32.80
23311;DHT22;11828;51.508;18.118;2022-09-29T06:44:28;24.80;33.10
23311;DHT22;11828;51.508;18.118;2022-09-29T06:46:56;24.70;33.70
23311;DHT22;11828;51.508;18.118;2022-09-29T06:49:22;25.10;34.10
23311;DHT22;11828;51.508;18.118;2022-09-29T06:51:49;25.70;33.50
23311;DHT22;11828;51.508;18.118;2022-09-29T06:54:18;26.10;32.50
23311;DHT22;11828;51.508;18.118;2022-09-29T06:56:47;26.30;31.90
23311;DHT22;11828;51.508;18.118;2022-09-29T06:59:14;26.30;31.40
23311;DHT22;11828;51.508;18.118;2022-09-29T07:01:41;26.20;31.10
23311;DHT22;11828;51.508;18.118;2022-09-29T07:04:07;26.00;30.90
23311;DHT22;11828;51.508;18.118;2022-09-29T07:06:33;25.80;30.80
23311;DHT22;11828;51.508;18.118;2022-09-29T07:09:00;25.50;31.20
23311;DHT22;11828;51.508;18.118;2022-09-29T07:11:26;25.30;32.30
23311;DHT22;11828;51.508;18.118;2022-09-29T07:13:53;25.60;32.60
23311;DHT22;11828;51.508;18.118;2022-09-29T07:16:20;25.90;31.80
23311;DHT22;11828;51.508;18.118;2022-09-29T07:18:48;26.00;31.90
23311;DHT22;11828;51.508;18.118;2022-09-29T07:21:15;26.40;32.20
23311;DHT22;11828;51.508;18.118;2022-09-29T07:23:43;27.00;32.10
23311;DHT22;11828;51.508;18.118;2022-09-29T07:26:10;27.60;30.90
23311;DHT22;11828;51.508;18.118;2022-09-29T07:28:37;28.00;29.90
23311;DHT22;11828;51.508;18.118;2022-09-29T07:31:06;28.40;29.90
23311;DHT22;11828;51.508;18.118;2022-09-29T07:33:34;28.90;29.30
23311;DHT22;11828;51.508;18.118;2022-09-29T07:36:00;29.70;29.60
23311;DHT22;11828;51.508;18.118;2022-09-29T07:38:27;30.40;29.40
23311;DHT22;11828;51.508;18.118;2022-09-29T07:40:58;31.40;28.70
23311;DHT22;11828;51.508;18.118;2022-09-29T07:43:26;32.40;28.30
23311;DHT22;11828;51.508;18.118;2022-09-29T07:45:52;33.30;27.50
23311;DHT22;11828;51.508;18.118;2022-09-29T07:48:18;34.10;26.50
23311;DHT22;11828;51.508;18.118;2022-09-29T07:50:44;34.90;26.10
23311;DHT22;11828;51.508;18.118;2022-09-29T07:53:11;35.50;24.90
23311;DHT22;11828;51.508;18.118;2022-09-29T07:55:38;36.10;24.90
23311;DHT22;11828;51.508;18.118;2022-09-29T07:58:04;36.60;24.20
23311;DHT22;11828;51.508;18.118;2022-09-29T08:00:31;37.10;23.80
23311;DHT22;11828;51.508;18.118;2022-09-29T08:03:05;37.90;23.30
23311;DHT22;11828;51.508;18.118;2022-09-29T08:05:34;38.70;22.70
23311;DHT22;11828;51.508;18.118;2022-09-29T08:08:02;39.50;22.10
23311;DHT22;11828;51.508;18.118;2022-09-29T08:10:31;40.00;21.10
23311;DHT22;11828;51.508;18.118;2022-09-29T08:12:58;40.30;21.30
23311;DHT22;11828;51.508;18.118;2022-09-29T08:15:24;40.30;20.80
23311;DHT22;11828;51.508;18.118;2022-09-29T08:17:52;40.60;20.90
23311;DHT22;11828;51.508;18.118;2022-09-29T08:20:20;41.00;20.70
23311;DHT22;11828;51.508;18.118;2022-09-29T08:22:47;41.30;20.30
23311;DHT22;11828;51.508;18.118;2022-09-29T08:25:16;41.70;20.10
23311;DHT22;11828;51.508;18.118;2022-09-29T08:27:43;42.10;19.90
23311;DHT22;11828;51.508;18.118;2022-09-29T08:30:10;42.70;20.00
23311;DHT22;11828;51.508;18.118;2022-09-29T08:32:37;43.20;19.50
23311;DHT22;11828;51.508;18.118;2022-09-29T08:35:04;43.90;19.40
23311;DHT22;11828;51.508;18.118;2022-09-29T08:37:31;44.70;19.00
23311;DHT22;11828;51.508;18.118;2022-09-29T08:39:57;45.20;18.10
23311;DHT22;11828;51.508;18.118;2022-09-29T08:42:35;45.40;17.90
23311;DHT22;11828;51.508;18.118;2022-09-29T08:45:13;44.90;17.20
23311;DHT22;11828;51.508;18.118;2022-09-29T08:48:18;44.00;17.70
23311;DHT22;11828;51.508;18.118;2022-09-29T08:50:55;43.30;17.80
23311;DHT22;11828;51.508;18.118;2022-09-29T08:53:25;43.00;17.90
23311;DHT22;11828;51.508;18.118;2022-09-29T08:55:59;42.40;18.00
23311;DHT22;11828;51.508;18.118;2022-09-29T08:58:29;41.70;18.60
23311;DHT22;11828;51.508;18.118;2022-09-29T09:21:31;38.50;19.60
23311;DHT22;11828;51.508;18.118;2022-09-29T09:27:02;37.10;20.60
23311;DHT22;11828;51.508;18.118;2022-09-29T09:32:08;37.70;20.40
23311;DHT22;11828;51.508;18.118;2022-09-29T09:34:46;38.40;20.20
23311;DHT22;11828;51.508;18.118;2022-09-29T09:37:38;38.30;20.00
23311;DHT22;11828;51.508;18.118;2022-09-29T09:42:37;38.40;20.00
23311;DHT22;11828;51.508;18.118;2022-09-29T09:45:06;38.60;20.00
23311;DHT22;11828;51.508;18.118;2022-09-29T09:50:59;38.70;19.70
23311;DHT22;11828;51.508;18.118;2022-09-29T09:53:33;38.80;19.70
23311;DHT22;11828;51.508;18.118;2022-09-29T09:56:42;38.60;20.00
23311;DHT22;11828;51.508;18.118;2022-09-29T10:02:49;38.30;19.80
23311;DHT22;11828;51.508;18.118;2022-09-29T10:05:18;37.70;20.00
23311;DHT22;11828;51.508;18.118;2022-09-29T10:07:49;37.00;20.30
23311;DHT22;11828;51.508;18.118;2022-09-29T10:10:21;36.30;20.90
23311;DHT22;11828;51.508;18.118;2022-09-29T10:12:55;35.50;21.30
23311;DHT22;11828;51.508;18.118;2022-09-29T10:15:24;35.00;22.20
23311;DHT22;11828;51.508;18.118;2022-09-29T10:18:02;34.70;22.00
23311;DHT22;11828;51.508;18.118;2022-09-29T10:20:36;34.40;22.50
23311;DHT22;11828;51.508;18.118;2022-09-29T10:28:39;33.10;23.40
23311;DHT22;11828;51.508;18.118;2022-09-29T10:31:23;32.80;23.50
23311;DHT22;11828;51.508;18.118;2022-09-29T10:34:16;32.50;23.70
23311;DHT22;11828;51.508;18.118;2022-09-29T10:36:53;32.20;23.50
23311;DHT22;11828;51.508;18.118;2022-09-29T10:39:38;32.10;24.00
23311;DHT22;11828;51.508;18.118;2022-09-29T10:47:33;31.70;24.70
23311;DHT22;11828;51.508;18.118;2022-09-29T10:50:22;31.70;24.60
23311;DHT22;11828;51.508;18.118;2022-09-29T10:52:52;31.80;25.10
23311;DHT22;11828;51.508;18.118;2022-09-29T10:55:29;31.80;24.80
23311;DHT22;11828;51.508;18.118;2022-09-29T10:58:00;31.80;24.50
23311;DHT22;11828;51.508;18.118;2022-09-29T11:00:32;31.80;24.50
23311;DHT22;11828;51.508;18.118;2022-09-29T11:03:16;31.90;24.90
23311;DHT22;11828;51.508;18.118;2022-09-29T11:06:11;31.90;24.60
23311;DHT22;11828;51.508;18.118;2022-09-29T11:17:24;32.40;22.80
23311;DHT22;11828;51.508;18.118;2022-09-29T11:19:51;32.30;23.00
23311;DHT22;11828;51.508;18.118;2022-09-29T11:22:50;32.00;22.70
23311;DHT22;11828;51.508;18.118;2022-09-29T11:25:55;31.90;23.20
23311;DHT22;11828;51.508;18.118;2022-09-29T11:28:45;31.70;23.40
23311;DHT22;11828;51.508;18.118;2022-09-29T11:31:35;31.50;23.20
23311;DHT22;11828;51.508;18.118;2022-09-29T11:37:26;31.40;23.50
23311;DHT22;11828;51.508;18.118;2022-09-29T11:40:10;31.40;23.60
23311;DHT22;11828;51.508;18.118;2022-09-29T11:51:44;31.50;23.40
23311;DHT22;11828;51.508;18.118;2022-09-29T12:00:12;31.50;23.90
23311;DHT22;11828;51.508;18.118;2022-09-29T12:08:38;31.50;23.00
23311;DHT22;11828;51.508;18.118;2022-09-29T12:11:32;31.30;23.20
23311;DHT22;11828;51.508;18.118;2022-09-29T12:14:14;31.30;23.30
23311;DHT22;11828;51.508;18.118;2022-09-29T12:16:53;31.40;23.50
23311;DHT22;11828;51.508;18.118;2022-09-29T12:19:25;31.40;23.20
23311;DHT22;11828;51.508;18.118;2022-09-29T12:21:55;31.50;23.00
23311;DHT22;11828;51.508;18.118;2022-09-29T12:27:23;31.40;23.00
23311;DHT22;11828;51.508;18.118;2022-09-29T12:29:54;31.50;22.60
23311;DHT22;11828;51.508;18.118;2022-09-29T12:35:33;31.70;22.40
23311;DHT22;11828;51.508;18.118;2022-09-29T12:38:15;31.90;22.60
23311;DHT22;11828;51.508;18.118;2022-09-29T12:44:01;32.00;22.40
23311;DHT22;11828;51.508;18.118;2022-09-29T12:46:52;32.10;22.30
23311;DHT22;11828;51.508;18.118;2022-09-29T12:49:36;32.20;22.40
23311;DHT22;11828;51.508;18.118;2022-09-29T12:52:19;32.20;22.30
23311;DHT22;11828;51.508;18.118;2022-09-29T12:54:51;31.90;22.40
23311;DHT22;11828;51.508;18.118;2022-09-29T12:57:40;31.70;22.60
23311;DHT22;11828;51.508;18.118;2022-09-29T13:00:13;31.30;22.90
23311;DHT22;11828;51.508;18.118;2022-09-29T13:06:10;31.00;23.30
23311;DHT22;11828;51.508;18.118;2022-09-29T13:14:50;30.50;24.30
23311;DHT22;11828;51.508;18.118;2022-09-29T13:21:22;30.40;24.20
23311;DHT22;11828;51.508;18.118;2022-09-29T13:27:15;30.40;24.30
23311;DHT22;11828;51.508;18.118;2022-09-29T13:30:05;30.30;24.20
23311;DHT22;11828;51.508;18.118;2022-09-29T13:35:40;30.40;24.30
23311;DHT22;11828;51.508;18.118;2022-09-29T13:38:22;30.40;24.10
23311;DHT22;11828;51.508;18.118;2022-09-29T13:41:09;30.50;24.30
23311;DHT22;11828;51.508;18.118;2022-09-29T13:51:42;30.10;24.50
23311;DHT22;11828;51.508;18.118;2022-09-29T13:54:25;30.00;24.40
23311;DHT22;11828;51.508;18.118;2022-09-29T13:59:38;30.20;24.30
23311;DHT22;11828;51.508;18.118;2022-09-29T14:15:35;30.50;24.30
23311;DHT22;11828;51.508;18.118;2022-09-29T14:18:13;30.40;24.40
23311;DHT22;11828;51.508;18.118;2022-09-29T14:21:00;30.40;24.50
23311;DHT22;11828;51.508;18.118;2022-09-29T14:26:42;30.50;24.50
23311;DHT22;11828;51.508;18.118;2022-09-29T14:29:26;30.40;24.10
23311;DHT22;11828;51.508;18.118;2022-09-29T14:31:56;30.40;24.00
23311;DHT22;11828;51.508;18.118;2022-09-29T14:34:26;30.50;24.20
23311;DHT22;11828;51.508;18.118;2022-09-29T14:36:55;30.50;24.20
23311;DHT22;11828;51.508;18.118;2022-09-29T14:39:23;30.50;24.40
23311;DHT22;11828;51.508;18.118;2022-09-29T14:41:50;30.50;24.40
23311;DHT22;11828;51.508;18.118;2022-09-29T14:44:25;30.60;24.80
23311;DHT22;11828;51.508;18.118;2022-09-29T14:47:35;30.60;25.00
23311;DHT22;11828;51.508;18.118;2022-09-29T14:50:46;30.70;25.10
23311;DHT22;11828;51.508;18.118;2022-09-29T14:54:04;30.70;25.10
23311;DHT22;11828;51.508;18.118;2022-09-29T14:56:52;30.80;25.20
23311;DHT22;11828;51.508;18.118;2022-09-29T15:02:24;30.70;25.60
23311;DHT22;11828;51.508;18.118;2022-09-29T15:04:52;30.70;25.80
23311;DHT22;11828;51.508;18.118;2022-09-29T15:07:26;30.70;26.10
23311;DHT22;11828;51.508;18.118;2022-09-29T15:09:55;30.80;26.20
23311;DHT22;11828;51.508;18.118;2022-09-29T15:12:30;30.80;26.20
23311;DHT22;11828;51.508;18.118;2022-09-29T15:14:57;30.90;26.20
23311;DHT22;11828;51.508;18.118;2022-09-29T15:18:01;30.90;26.20
23311;DHT22;11828;51.508;18.118;2022-09-29T15:20:31;30.90;25.90
23311;DHT22;11828;51.508;18.118;2022-09-29T15:25:54;30.90;26.10
23311;DHT22;11828;51.508;18.118;2022-09-29T15:28:30;30.80;25.90
23311;DHT22;11828;51.508;18.118;2022-09-29T15:31:02;30.80;26.00
23311;DHT22;11828;51.508;18.118;2022-09-29T15:33:31;30.70;25.90
23311;DHT22;11828;51.508;18.118;2022-09-29T15:36:04;30.60;26.00
23311;DHT22;11828;51.508;18.118;2022-09-29T15:38:37;30.60;26.10
23311;DHT22;11828;51.508;18.118;2022-09-29T15:43:40;30.50;26.40
23311;DHT22;11828;51.508;18.118;2022-09-29T15:49:13;30.30;26.80
23311;DHT22;11828;51.508;18.118;2022-09-29T15:51:45;30.10;27.50
23311;DHT22;11828;51.508;18.118;2022-09-29T15:54:20;30.00;27.60
23311;DHT22;11828;51.508;18.118;2022-09-29T15:56:47;30.00;27.80
23311;DHT22;11828;51.508;18.118;2022-09-29T15:59:40;30.00;27.80
23311;DHT22;11828;51.508;18.118;2022-09-29T16:02:16;30.00;27.90
23311;DHT22;11828;51.508;18.118;2022-09-29T16:04:46;30.00;27.60
23311;DHT22;11828;51.508;18.118;2022-09-29T16:07:33;29.80;27.60
23311;DHT22;11828;51.508;18.118;2022-09-29T16:10:19;29.50;27.90
23311;DHT22;11828;51.508;18.118;2022-09-29T16:12:58;29.40;27.90
23311;DHT22;11828;51.508;18.118;2022-09-29T16:15:35;29.30;27.70
23311;DHT22;11828;51.508;18.118;2022-09-29T16:18:15;29.30;27.90
23311;DHT22;11828;51.508;18.118;2022-09-29T16:20:45;29.30;28.00
23311;DHT22;11828;51.508;18.118;2022-09-29T16:26:09;29.20;28.40
23311;DHT22;11828;51.508;18.118;2022-09-29T16:31:25;28.90;28.60
23311;DHT22;11828;51.508;18.118;2022-09-29T16:33:56;28.60;28.80
23311;DHT22;11828;51.508;18.118;2022-09-29T16:36:32;28.50;29.70
23311;DHT22;11828;51.508;18.118;2022-09-29T16:39:05;28.20;31.00
23311;DHT22;11828;51.508;18.118;2022-09-29T16:41:36;27.80;31.70
23311;DHT22;11828;51.508;18.118;2022-09-29T16:49:44;27.60;30.10
23311;DHT22;11828;51.508;18.118;2022-09-29T16:54:48;27.30;30.20
23311;DHT22;11828;51.508;18.118;2022-09-29T16:59:57;27.20;33.00
23311;DHT22;11828;51.508;18.118;2022-09-29T17:02:25;26.80;31.00
23311;DHT22;11828;51.508;18.118;2022-09-29T17:04:53;26.80;35.20
23311;DHT22;11828;51.508;18.118;2022-09-29T17:07:23;26.70;33.70
23311;DHT22;11828;51.508;18.118;2022-09-29T17:09:58;26.60;34.20
23311;DHT22;11828;51.508;18.118;2022-09-29T17:12:27;26.70;31.30
23311;DHT22;11828;51.508;18.118;2022-09-29T17:14:54;26.70;35.00
23311;DHT22;11828;51.508;18.118;2022-09-29T17:17:25;26.50;35.50
23311;DHT22;11828;51.508;18.118;2022-09-29T17:19:53;26.60;35.60
23311;DHT22;11828;51.508;18.118;2022-09-29T17:22:27;26.50;36.10
23311;DHT22;11828;51.508;18.118;2022-09-29T17:24:59;26.30;34.10
23311;DHT22;11828;51.508;18.118;2022-09-29T17:27:27;26.60;34.80
23311;DHT22;11828;51.508;18.118;2022-09-29T17:30:15;26.30;31.90
23311;DHT22;11828;51.508;18.118;2022-09-29T17:32:45;26.30;37.20
23311;DHT22;11828;51.508;18.118;2022-09-29T17:35:13;26.30;33.30
23311;DHT22;11828;51.508;18.118;2022-09-29T17:37:41;26.00;34.50
23311;DHT22;11828;51.508;18.118;2022-09-29T17:43:22;25.90;35.40
23311;DHT22;11828;51.508;18.118;2022-09-29T17:45:50;26.10;32.80
23311;DHT22;11828;51.508;18.118;2022-09-29T17:48:16;25.60;36.40
23311;DHT22;11828;51.508;18.118;2022-09-29T17:50:47;26.10;35.30
23311;DHT22;11828;51.508;18.118;2022-09-29T17:53:14;26.00;32.90
23311;DHT22;11828;51.508;18.118;2022-09-29T17:55:44;26.20;35.20
23311;DHT22;11828;51.508;18.118;2022-09-29T17:58:15;26.00;33.10
23311;DHT22;11828;51.508;18.118;2022-09-29T18:00:45;26.00;34.80
23311;DHT22;11828;51.508;18.118;2022-09-29T18:03:15;25.70;34.90
23311;DHT22;11828;51.508;18.118;2022-09-29T18:05:45;25.90;32.40
23311;DHT22;11828;51.508;18.118;2022-09-29T18:08:14;25.90;35.40
23311;DHT22;11828;51.508;18.118;2022-09-29T18:11:00;25.90;33.00
23311;DHT22;11828;51.508;18.118;2022-09-29T18:13:29;25.90;35.90
23311;DHT22;11828;51.508;18.118;2022-09-29T18:16:00;25.80;37.50
23311;DHT22;11828;51.508;18.118;2022-09-29T18:20:53;25.80;34.50
23311;DHT22;11828;51.508;18.118;2022-09-29T18:23:20;25.70;38.20
23311;DHT22;11828;51.508;18.118;2022-09-29T18:25:49;25.40;37.80
23311;DHT22;11828;51.508;18.118;2022-09-29T18:28:17;25.50;36.80
23311;DHT22;11828;51.508;18.118;2022-09-29T18:30:46;25.50;33.50
23311;DHT22;11828;51.508;18.118;2022-09-29T18:33:16;25.50;37.70
23311;DHT22;11828;51.508;18.118;2022-09-29T18:35:45;25.40;37.10
23311;DHT22;11828;51.508;18.118;2022-09-29T18:38:16;25.50;36.20
23311;DHT22;11828;51.508;18.118;2022-09-29T18:40:42;25.40;37.20
23311;DHT22;11828;51.508;18.118;2022-09-29T18:43:12;25.50;33.00
23311;DHT22;11828;51.508;18.118;2022-09-29T18:45:38;25.10;42.00
23311;DHT22;11828;51.508;18.118;2022-09-29T18:48:12;25.20;37.40
23311;DHT22;11828;51.508;18.118;2022-09-29T18:50:42;25.20;34.50
23311;DHT22;11828;51.508;18.118;2022-09-29T18:53:15;25.10;33.10
23311;DHT22;11828;51.508;18.118;2022-09-29T18:55:44;25.20;35.00
23311;DHT22;11828;51.508;18.118;2022-09-29T18:58:16;25.10;33.10
23311;DHT22;11828;51.508;18.118;2022-09-29T19:00:46;24.90;37.10
23311;DHT22;11828;51.508;18.118;2022-09-29T19:03:16;25.00;33.00